createdAt,value
2022-09-20T00:01:33.337Z,9.00
2022-09-20T00:04:06.905Z,9.00
2022-09-20T00:06:35.610Z,8.90
2022-09-20T00:09:06.309Z,8.90
2022-09-20T00:11:36.469Z,8.90
2022-09-20T00:14:08.437Z,8.80
2022-09-20T00:16:39.122Z,8.80
2022-09-20T00:19:08.994Z,8.80
2022-09-20T00:21:39.577Z,8.80
2022-09-20T00:24:09.295Z,8.80
2022-09-20T00:26:38.068Z,8.70
2022-09-20T00:29:06.869Z,8.70
2022-09-20T00:31:35.751Z,8.70
2022-09-20T00:34:23.549Z,8.70
2022-09-20T00:36:51.689Z,8.70
2022-09-20T00:39:21.169Z,8.60
2022-09-20T00:41:49.304Z,8.60
2022-09-20T00:44:54.882Z,8.60
2022-09-20T00:47:29.935Z,8.60
2022-09-20T00:50:08.527Z,8.60
2022-09-20T00:52:39.132Z,8.50
2022-09-20T00:55:11.620Z,8.40
2022-09-20T00:57:42.639Z,8.40
2022-09-20T01:00:14.290Z,8.40
2022-09-20T01:02:46.877Z,8.50
2022-09-20T01:05:16.906Z,8.40
2022-09-20T01:07:46.834Z,8.50
2022-09-20T01:10:16.486Z,8.40
2022-09-20T01:12:46.139Z,8.40
2022-09-20T01:15:15.588Z,8.40
2022-09-20T01:17:47.750Z,8.40
2022-09-20T01:20:23.532Z,8.50
2022-09-20T01:23:13.351Z,8.40
2022-09-20T01:26:13.326Z,8.40
2022-09-20T01:28:46.556Z,8.50
2022-09-20T01:31:22.669Z,8.50
2022-09-20T01:33:53.743Z,8.50
2022-09-20T01:36:26.155Z,8.50
2022-09-20T01:39:04.433Z,8.50
2022-09-20T01:41:38.005Z,8.40
2022-09-20T01:44:13.824Z,8.40
2022-09-20T01:46:44.157Z,8.50
2022-09-20T01:49:25.981Z,8.50
2022-09-20T01:52:37.881Z,8.40
2022-09-20T01:55:33.832Z,8.40
2022-09-20T01:58:34.676Z,8.40
2022-09-20T02:01:27.812Z,8.30
2022-09-20T02:04:24.250Z,8.30
2022-09-20T02:07:08.911Z,8.30
2022-09-20T02:09:57.858Z,8.30
2022-09-20T02:12:47.881Z,8.30
2022-09-20T02:15:29.580Z,8.30
2022-09-20T02:18:10.576Z,8.30
2022-09-20T02:20:48.925Z,8.30
2022-09-20T02:23:34.884Z,8.30
2022-09-20T02:26:13.575Z,8.30
2022-09-20T02:28:54.438Z,8.30
2022-09-20T02:31:39.961Z,8.20
2022-09-20T02:34:47.141Z,8.30
2022-09-20T02:37:40.644Z,8.30
2022-09-20T02:40:21.285Z,8.30
2022-09-20T02:42:57.373Z,8.40
2022-09-20T02:45:33.664Z,8.40
2022-09-20T02:48:05.341Z,8.50
2022-09-20T02:50:46.388Z,8.50
2022-09-20T02:53:33.652Z,8.60
2022-09-20T02:56:12.652Z,8.60
2022-09-20T02:58:49.472Z,8.60
2022-09-20T03:01:31.783Z,8.60
2022-09-20T03:04:16.969Z,8.50
2022-09-20T03:06:54.476Z,8.60
2022-09-20T03:09:31.934Z,8.50
2022-09-20T03:12:08.946Z,8.60
2022-09-20T03:14:41.617Z,8.50
2022-09-20T03:17:20.311Z,8.60
2022-09-20T03:19:57.808Z,8.50
2022-09-20T03:22:39.490Z,8.60
2022-09-20T03:25:31.588Z,8.50
2022-09-20T03:28:15.611Z,8.50
2022-09-20T03:30:59.874Z,8.50
2022-09-20T03:33:35.506Z,8.50
2022-09-20T03:36:20.308Z,8.50
2022-09-20T03:39:15.133Z,8.50
2022-09-20T03:42:03.765Z,8.50
2022-09-20T03:45:07.376Z,8.60
2022-09-20T03:47:54.564Z,8.60
2022-09-20T03:50:38.683Z,8.70
2022-09-20T03:53:46.354Z,8.80
2022-09-20T03:56:34.506Z,8.80
2022-09-20T03:59:23.298Z,8.80
2022-09-20T04:02:07.728Z,8.90
2022-09-20T04:04:46.250Z,9.00
2022-09-20T04:07:23.611Z,9.00
2022-09-20T04:10:14.619Z,9.10
2022-09-20T04:12:57.423Z,9.00
2022-09-20T04:15:36.723Z,9.10
2022-09-20T04:18:13.485Z,9.10
2022-09-20T04:20:47.314Z,9.10
2022-09-20T04:23:26.556Z,9.10
2022-09-20T04:25:54.733Z,9.10
2022-09-20T04:28:29.701Z,9.10
2022-09-20T04:31:07.591Z,9.00
2022-09-20T04:33:42.387Z,9.10
2022-09-20T04:36:30.195Z,9.10
2022-09-20T04:39:14.433Z,9.10
2022-09-20T04:42:11.423Z,9.00
2022-09-20T04:45:16.727Z,9.10
2022-09-20T04:48:25.790Z,9.10
2022-09-20T04:51:27.212Z,9.00
2022-09-20T04:54:47.971Z,9.10
2022-09-20T04:57:53.865Z,9.00
2022-09-20T05:00:24.040Z,9.00
2022-09-20T05:03:23.004Z,9.00
2022-09-20T05:06:20.351Z,9.00
2022-09-20T05:09:24.614Z,9.00
2022-09-20T05:12:08.720Z,9.10
2022-09-20T05:14:59.511Z,9.10
2022-09-20T05:17:44.750Z,9.10
2022-09-20T05:20:40.903Z,9.30
2022-09-20T05:23:30.955Z,9.30
2022-09-20T05:26:12.383Z,9.30
2022-09-20T05:28:51.335Z,9.40
2022-09-20T05:31:28.297Z,9.40
2022-09-20T05:34:00.791Z,9.50
2022-09-20T05:36:40.512Z,9.60
2022-09-20T05:39:24.616Z,9.60
2022-09-20T05:41:57.879Z,9.70
2022-09-20T05:44:32.151Z,9.80
2022-09-20T05:47:15.488Z,9.90
2022-09-20T05:49:53.617Z,10.00
2022-09-20T05:52:35.753Z,10.00
2022-09-20T05:55:41.234Z,10.10
2022-09-20T05:58:39.704Z,10.20
2022-09-20T06:01:13.803Z,10.30
2022-09-20T06:03:54.465Z,10.30
2022-09-20T06:06:32.580Z,10.50
2022-09-20T06:09:29.401Z,10.50
2022-09-20T06:12:15.063Z,10.70
2022-09-20T06:14:51.991Z,10.80
2022-09-20T06:17:28.428Z,10.80
2022-09-20T06:20:10.559Z,10.90
2022-09-20T06:22:42.960Z,10.90
2022-09-20T06:25:20.781Z,11.00
2022-09-20T06:27:54.043Z,11.10
2022-09-20T06:30:27.174Z,11.10
2022-09-20T06:32:59.452Z,11.20
2022-09-20T06:35:34.063Z,11.30
2022-09-20T06:38:32.837Z,11.20
2022-09-20T06:41:19.935Z,11.20
2022-09-20T06:43:50.762Z,11.40
2022-09-20T06:46:19.269Z,11.60
2022-09-20T06:48:47.257Z,11.80
2022-09-20T06:51:17.555Z,12.10
2022-09-20T06:53:45.473Z,12.20
2022-09-20T06:56:18.307Z,12.30
2022-09-20T06:58:48.658Z,12.50
2022-09-20T07:01:29.022Z,12.50
2022-09-20T07:03:57.987Z,12.40
2022-09-20T07:06:26.725Z,12.60
2022-09-20T07:08:54.700Z,12.40
2022-09-20T07:11:24.117Z,12.10
2022-09-20T07:13:53.832Z,11.90
2022-09-20T07:16:22.349Z,11.70
2022-09-20T07:18:52.266Z,11.70
2022-09-20T07:21:22.089Z,11.40
2022-09-20T07:23:51.201Z,11.30
2022-09-20T07:26:21.269Z,11.20
2022-09-20T07:28:51.340Z,11.40
2022-09-20T07:31:20.387Z,11.40
2022-09-20T07:33:48.534Z,11.30
2022-09-20T07:36:17.355Z,11.30
2022-09-20T07:38:49.111Z,11.50
2022-09-20T07:41:19.039Z,11.50
2022-09-20T07:43:47.100Z,11.50
2022-09-20T07:46:16.341Z,11.70
2022-09-20T07:48:44.330Z,11.60
2022-09-20T07:51:14.956Z,11.50
2022-09-20T07:53:45.012Z,11.50
2022-09-20T07:56:14.871Z,11.50
2022-09-20T07:58:47.404Z,11.60
2022-09-20T08:01:22.701Z,11.50
2022-09-20T08:03:53.583Z,11.70
2022-09-20T08:06:21.859Z,11.80
2022-09-20T08:08:52.188Z,11.80
2022-09-20T08:11:27.887Z,11.80
2022-09-20T08:14:06.324Z,12.00
2022-09-20T08:16:39.580Z,11.90
2022-09-20T08:19:07.966Z,12.00
2022-09-20T08:21:37.923Z,12.10
2022-09-20T08:24:06.119Z,12.10
2022-09-20T08:26:35.678Z,12.10
2022-09-20T08:29:05.318Z,12.20
2022-09-20T08:31:37.400Z,12.30
2022-09-20T08:34:09.071Z,12.40
2022-09-20T08:36:41.036Z,12.40
2022-09-20T08:42:04.243Z,12.70
2022-09-20T08:44:35.885Z,12.80
2022-09-20T08:47:09.791Z,12.80
2022-09-20T08:49:40.510Z,12.80
2022-09-20T08:52:16.455Z,12.90
2022-09-20T08:54:44.744Z,12.90
2022-09-20T08:57:17.260Z,12.90
2022-09-20T08:59:45.902Z,12.90
2022-09-20T09:02:17.487Z,13.00
2022-09-20T09:04:48.322Z,13.10
2022-09-20T09:07:19.655Z,13.10
2022-09-20T09:09:49.523Z,13.30
2022-09-20T09:12:24.362Z,13.30
2022-09-20T09:14:55.205Z,13.50
2022-09-20T09:17:28.161Z,13.50
2022-09-20T09:19:59.028Z,13.40
2022-09-20T09:22:32.198Z,13.40
2022-09-20T09:25:32.205Z,13.60
2022-09-20T09:28:06.016Z,13.80
2022-09-20T09:30:37.706Z,13.90
2022-09-20T09:33:18.603Z,13.80
2022-09-20T09:36:00.143Z,13.80
2022-09-20T09:38:30.541Z,13.90
2022-09-20T09:41:00.599Z,14.10
2022-09-20T09:43:32.340Z,14.30
2022-09-20T09:46:19.041Z,14.30
2022-09-20T09:48:49.998Z,14.40
2022-09-20T09:51:23.195Z,14.60
2022-09-20T09:53:52.783Z,14.60
2022-09-20T09:56:35.168Z,14.50
2022-09-20T09:59:20.821Z,14.40
2022-09-20T10:01:57.992Z,14.40
2022-09-20T10:04:32.621Z,14.40
2022-09-20T10:07:10.180Z,14.30
2022-09-20T10:09:58.848Z,14.70
2022-09-20T10:12:48.944Z,15.00
2022-09-20T10:15:29.328Z,15.20
2022-09-20T10:18:13.146Z,15.30
2022-09-20T10:20:58.637Z,15.30
2022-09-20T10:24:02.660Z,15.20
2022-09-20T10:26:52.495Z,15.10
2022-09-20T10:29:28.898Z,15.20
2022-09-20T10:32:07.460Z,15.30
2022-09-20T10:34:57.358Z,15.50
2022-09-20T10:37:32.198Z,15.40
2022-09-20T10:40:07.994Z,15.40
2022-09-20T10:43:05.397Z,15.40
2022-09-20T10:48:35.463Z,15.20
2022-09-20T10:51:11.049Z,15.00
2022-09-20T10:53:47.191Z,14.70
2022-09-20T10:56:27.479Z,14.50
2022-09-20T10:59:23.393Z,14.20
2022-09-20T11:02:02.363Z,13.90
2022-09-20T11:05:06.729Z,13.70
2022-09-20T11:07:50.933Z,13.50
2022-09-20T11:10:24.270Z,13.30
2022-09-20T11:13:00.116Z,13.30
2022-09-20T11:15:34.403Z,13.30
2022-09-20T11:18:12.159Z,13.40
2022-09-20T11:20:45.338Z,13.20
2022-09-20T11:23:18.651Z,12.40
2022-09-20T11:25:51.928Z,11.30
2022-09-20T11:28:26.135Z,11.00
2022-09-20T11:31:01.553Z,10.80
2022-09-20T11:33:40.676Z,10.60
2022-09-20T11:36:15.558Z,10.40
2022-09-20T11:38:53.291Z,10.40
2022-09-20T11:41:26.037Z,10.40
2022-09-20T11:43:58.341Z,10.40
2022-09-20T11:46:28.779Z,10.40
2022-09-20T11:49:02.585Z,10.50
2022-09-20T11:51:52.381Z,10.60
2022-09-20T11:54:54.687Z,10.80
2022-09-20T11:57:24.122Z,10.90
2022-09-20T11:59:56.269Z,11.00
2022-09-20T12:02:30.133Z,11.10
2022-09-20T12:04:59.654Z,11.10
2022-09-20T12:07:33.150Z,11.00
2022-09-20T12:10:08.289Z,11.00
2022-09-20T12:12:39.843Z,11.10
2022-09-20T12:15:26.010Z,11.20
2022-09-20T12:18:09.442Z,11.40
2022-09-20T12:21:03.745Z,11.50
2022-09-20T12:24:08.273Z,11.60
2022-09-20T12:26:45.720Z,11.70
2022-09-20T12:29:54.174Z,11.90
2022-09-20T12:32:45.727Z,12.20
2022-09-20T12:35:56.916Z,12.40
2022-09-20T12:38:31.216Z,12.60
2022-09-20T12:41:04.345Z,12.60
2022-09-20T12:43:34.524Z,12.40
2022-09-20T12:46:07.500Z,12.30
2022-09-20T12:48:39.639Z,12.40
2022-09-20T12:51:38.358Z,12.10
2022-09-20T12:54:08.819Z,12.00
2022-09-20T12:56:38.778Z,11.90
2022-09-20T12:59:20.959Z,11.90
2022-09-20T13:01:49.140Z,12.30
2022-09-20T13:04:55.128Z,12.60
2022-09-20T13:07:43.341Z,12.80
2022-09-20T13:10:27.466Z,13.00
2022-09-20T13:13:02.120Z,13.10
2022-09-20T13:15:31.811Z,12.90
2022-09-20T13:18:03.347Z,12.80
2022-09-20T13:20:35.082Z,12.80
2022-09-20T13:23:07.114Z,12.60
2022-09-20T13:25:40.733Z,12.30
2022-09-20T13:28:21.312Z,12.30
2022-09-20T13:30:49.431Z,12.30
2022-09-20T13:33:22.806Z,12.40
2022-09-20T13:35:58.086Z,12.60
2022-09-20T13:38:29.893Z,12.70
2022-09-20T13:41:06.228Z,13.10
2022-09-20T13:43:37.922Z,13.20
2022-09-20T13:46:12.292Z,13.50
2022-09-20T13:48:40.937Z,13.70
2022-09-20T13:51:19.586Z,14.00
2022-09-20T13:53:47.890Z,14.40
2022-09-20T13:56:21.274Z,14.70
2022-09-20T13:58:49.972Z,14.90
2022-09-20T14:01:26.637Z,15.00
2022-09-20T14:03:55.403Z,14.90
2022-09-20T14:06:29.776Z,14.60
2022-09-20T14:08:59.945Z,14.50
2022-09-20T14:11:30.181Z,14.70
2022-09-20T14:14:01.508Z,14.90
2022-09-20T14:16:32.429Z,14.90
2022-09-20T14:19:01.136Z,14.80
2022-09-20T14:21:34.316Z,14.80
2022-09-20T14:24:07.070Z,14.90
2022-09-20T14:26:36.269Z,15.10
2022-09-20T14:29:38.457Z,15.30
2022-09-20T14:32:14.642Z,15.30
2022-09-20T14:34:46.480Z,14.90
2022-09-20T14:37:26.860Z,14.90
2022-09-20T14:39:57.614Z,14.80
2022-09-20T14:42:30.631Z,14.40
2022-09-20T14:44:59.259Z,14.20
2022-09-20T14:47:29.296Z,14.10
2022-09-20T14:49:59.525Z,14.20
2022-09-20T14:52:43.653Z,14.30
2022-09-20T14:55:28.286Z,14.40
2022-09-20T14:58:01.528Z,14.30
2022-09-20T15:00:30.254Z,14.20
2022-09-20T15:03:07.254Z,14.10
2022-09-20T15:05:35.209Z,14.00
2022-09-20T15:08:04.599Z,14.00
2022-09-20T15:10:32.842Z,13.90
2022-09-20T15:13:03.175Z,13.70
2022-09-20T15:15:31.104Z,13.70
2022-09-20T15:17:59.089Z,13.70
2022-09-20T15:20:27.007Z,13.80
2022-09-20T15:22:55.366Z,13.90
2022-09-20T15:25:25.393Z,13.80
2022-09-20T15:27:53.656Z,13.70
2022-09-20T15:30:23.705Z,13.60
2022-09-20T15:32:53.534Z,13.50
2022-09-20T15:35:23.732Z,13.40
2022-09-20T15:37:51.618Z,13.30
2022-09-20T15:40:19.754Z,13.30
2022-09-20T15:42:49.149Z,13.20
2022-09-20T15:45:17.409Z,13.00
2022-09-20T15:47:48.063Z,12.60
2022-09-20T15:50:18.222Z,12.40
2022-09-20T15:52:47.245Z,12.20
2022-09-20T15:55:15.241Z,11.80
2022-09-20T15:57:43.154Z,11.60
2022-09-20T16:00:13.428Z,11.40
2022-09-20T16:02:41.430Z,11.20
2022-09-20T16:05:10.920Z,11.10
2022-09-20T16:07:38.929Z,11.00
2022-09-20T16:10:07.799Z,11.00
2022-09-20T16:12:35.809Z,11.00
2022-09-20T16:15:03.753Z,11.00
2022-09-20T16:17:50.304Z,11.00
2022-09-20T16:20:18.231Z,11.00
2022-09-20T16:22:47.034Z,10.90
2022-09-20T16:25:14.985Z,11.00
2022-09-20T16:27:43.038Z,11.00
2022-09-20T16:30:12.017Z,10.90
2022-09-20T16:32:42.001Z,11.00
2022-09-20T16:35:10.031Z,11.00
2022-09-20T16:37:39.252Z,11.00
2022-09-20T16:40:10.712Z,11.00
2022-09-20T16:42:38.966Z,10.90
2022-09-20T16:45:09.565Z,10.90
2022-09-20T16:47:40.972Z,10.90
2022-09-20T16:50:11.951Z,10.90
2022-09-20T16:52:39.949Z,10.90
2022-09-20T16:55:10.972Z,11.00
2022-09-20T16:57:38.934Z,10.90
2022-09-20T17:00:08.134Z,11.00
2022-09-20T17:02:36.142Z,10.90
2022-09-20T17:05:04.115Z,10.90
2022-09-20T17:07:33.719Z,10.90
2022-09-20T17:10:01.886Z,10.90
2022-09-20T17:12:33.137Z,10.90
2022-09-20T17:15:01.024Z,10.90
2022-09-20T17:17:28.876Z,10.90
2022-09-20T17:19:56.792Z,10.90
2022-09-20T17:22:24.658Z,10.80
2022-09-20T17:24:54.808Z,10.80
2022-09-20T17:27:23.983Z,10.80
2022-09-20T17:29:52.354Z,10.80
2022-09-20T17:32:20.651Z,10.80
2022-09-20T17:34:48.920Z,10.80
2022-09-20T17:37:16.825Z,10.80
2022-09-20T17:39:44.712Z,10.80
2022-09-20T17:42:14.106Z,10.80
2022-09-20T17:44:44.211Z,10.90
2022-09-20T17:47:12.182Z,10.90
2022-09-20T17:49:40.657Z,10.80
2022-09-20T17:52:08.578Z,10.80
2022-09-20T17:54:36.498Z,10.80
2022-09-20T17:57:05.568Z,10.70
2022-09-20T17:59:36.581Z,10.60
2022-09-20T18:02:04.588Z,10.60
2022-09-20T18:04:34.900Z,10.60
2022-09-20T18:07:04.106Z,10.60
2022-09-20T18:09:32.295Z,10.50
2022-09-20T18:12:00.277Z,10.50
2022-09-20T18:14:31.165Z,10.40
2022-09-20T18:17:02.070Z,10.40
2022-09-20T18:19:33.015Z,10.50
2022-09-20T18:22:01.696Z,10.40
2022-09-20T18:24:32.479Z,10.50
2022-09-20T18:27:01.522Z,10.60
2022-09-20T18:29:33.394Z,10.70
2022-09-20T18:32:03.124Z,10.60
2022-09-20T18:34:31.904Z,10.50
2022-09-20T18:37:01.299Z,10.50
2022-09-20T18:39:32.342Z,10.50
2022-09-20T18:42:00.992Z,10.40
2022-09-20T18:44:33.512Z,10.30
2022-09-20T18:47:03.217Z,10.30
2022-09-20T18:49:31.265Z,10.20
2022-09-20T18:51:59.281Z,10.20
2022-09-20T18:54:30.139Z,10.20
2022-09-20T18:56:58.589Z,10.20
2022-09-20T18:59:28.302Z,10.20
2022-09-20T19:02:23.883Z,10.20
2022-09-20T19:05:08.468Z,10.20
2022-09-20T19:07:46.665Z,10.20
2022-09-20T19:10:23.861Z,10.20
2022-09-20T19:12:59.312Z,10.10
2022-09-20T19:15:41.766Z,10.10
2022-09-20T19:18:27.704Z,10.10
2022-09-20T19:21:00.359Z,10.00
2022-09-20T19:23:46.375Z,10.00
2022-09-20T19:26:21.793Z,10.10
2022-09-20T19:28:50.362Z,10.10
2022-09-20T19:31:24.084Z,10.10
2022-09-20T19:33:55.782Z,10.10
2022-09-20T19:36:24.532Z,10.00
2022-09-20T19:39:05.085Z,10.00
2022-09-20T19:41:41.098Z,9.90
2022-09-20T19:44:18.208Z,10.00
2022-09-20T19:47:01.424Z,10.00
2022-09-20T19:49:40.963Z,10.00
2022-09-20T19:52:13.382Z,10.10
2022-09-20T19:54:46.323Z,10.00
2022-09-20T19:57:20.519Z,9.90
2022-09-20T19:59:50.515Z,9.90
2022-09-20T20:02:19.416Z,9.90
2022-09-20T20:04:49.353Z,9.80
2022-09-20T20:07:27.690Z,9.80
2022-09-20T20:10:04.119Z,9.80
2022-09-20T20:12:36.843Z,9.70
2022-09-20T20:15:15.898Z,9.60
2022-09-20T20:17:51.104Z,9.70
2022-09-20T20:20:30.621Z,9.60
2022-09-20T20:23:42.782Z,9.60
2022-09-20T20:26:17.749Z,9.60
2022-09-20T20:28:45.878Z,9.50
2022-09-20T20:31:14.194Z,9.50
2022-09-20T20:33:43.385Z,9.50
2022-09-20T20:36:12.882Z,9.40
2022-09-20T20:38:43.424Z,9.40
2022-09-20T20:41:12.895Z,9.40
2022-09-20T20:43:43.205Z,9.40
2022-09-20T20:46:14.092Z,9.40
2022-09-20T20:48:42.391Z,9.30
2022-09-20T20:51:13.823Z,9.30
2022-09-20T20:53:44.939Z,9.20
2022-09-20T20:56:14.688Z,9.20
2022-09-20T20:58:44.036Z,9.20
2022-09-20T21:01:14.113Z,9.20
2022-09-20T21:03:43.447Z,9.20
2022-09-20T21:06:13.203Z,9.20
2022-09-20T21:08:48.276Z,9.20
2022-09-20T21:11:19.858Z,9.20
2022-09-20T21:13:48.816Z,9.10
2022-09-20T21:16:18.831Z,9.10
2022-09-20T21:18:48.156Z,9.10
2022-09-20T21:21:19.676Z,9.10
2022-09-20T21:23:49.520Z,9.00
2022-09-20T21:26:17.594Z,9.00
2022-09-20T21:28:48.838Z,8.90
2022-09-20T21:31:17.315Z,8.90
2022-09-20T21:33:45.450Z,8.90
2022-09-20T21:36:15.093Z,8.80
2022-09-20T21:38:45.180Z,8.80
2022-09-20T21:41:15.034Z,8.90
2022-09-20T21:43:44.543Z,8.80
2022-09-20T21:46:13.712Z,8.80
2022-09-20T21:48:42.005Z,8.80
2022-09-20T21:51:11.703Z,8.80
2022-09-20T21:53:40.486Z,8.80
2022-09-20T21:56:12.513Z,8.80
2022-09-20T21:58:41.063Z,8.80
2022-09-20T22:01:11.461Z,8.90
2022-09-20T22:03:40.851Z,8.90
2022-09-20T22:06:10.975Z,8.90
2022-09-20T22:08:40.025Z,8.90
2022-09-20T22:11:14.547Z,8.80
2022-09-20T22:13:43.598Z,8.80
2022-09-20T22:16:13.418Z,8.70
2022-09-20T22:18:42.929Z,8.70
2022-09-20T22:21:12.983Z,8.70
2022-09-20T22:23:42.212Z,8.70
2022-09-20T22:26:13.146Z,8.70
2022-09-20T22:28:41.820Z,8.70
2022-09-20T22:31:12.027Z,8.60
2022-09-20T22:33:43.459Z,8.60
2022-09-20T22:36:15.458Z,8.60
2022-09-20T22:38:43.852Z,8.60
2022-09-20T22:41:14.759Z,8.60
2022-09-20T22:43:42.781Z,8.60
2022-09-20T22:46:15.012Z,8.50
2022-09-20T22:48:43.781Z,8.50
2022-09-20T22:51:15.802Z,8.60
2022-09-20T22:53:44.297Z,8.60
2022-09-20T22:56:17.195Z,8.60
2022-09-20T22:58:45.995Z,8.50
2022-09-20T23:01:18.142Z,8.50
2022-09-20T23:03:48.464Z,8.40
2022-09-20T23:06:20.781Z,8.50
2022-09-20T23:08:49.165Z,8.50
2022-09-20T23:11:21.334Z,8.50
2022-09-20T23:13:53.963Z,8.60
2022-09-20T23:16:23.798Z,8.50
2022-09-20T23:18:52.816Z,8.40
2022-09-20T23:21:21.484Z,8.40
2022-09-20T23:23:54.057Z,8.30
2022-09-20T23:26:23.499Z,8.30
2022-09-20T23:28:54.796Z,8.20
2022-09-20T23:31:25.917Z,8.20
2022-09-20T23:33:55.857Z,8.20
2022-09-20T23:36:25.095Z,8.10
2022-09-20T23:38:53.561Z,8.20
2022-09-20T23:41:24.811Z,8.20
2022-09-20T23:43:53.095Z,8.20
2022-09-20T23:46:23.113Z,8.20
2022-09-20T23:48:51.476Z,8.20
2022-09-20T23:51:21.615Z,8.20
2022-09-20T23:53:50.003Z,8.20
2022-09-20T23:56:18.227Z,8.30
2022-09-20T23:58:48.568Z,8.20
